sensor_id;sensor_type;location;lat;lon;timestamp;P1;durP1;ratioP1;P2;durP2;ratioP2
12072;SDS011;6098;49.004;8.372;2023-10-19T00:12:37;22.00;;;12.92;;
12072;SDS011;6098;49.004;8.372;2023-10-19T00:27:30;22.63;;;13.52;;
12072;SDS011;6098;49.004;8.372;2023-10-19T00:42:23;20.79;;;12.81;;
12072;SDS011;6098;49.004;8.372;2023-10-19T00:57:20;20.64;;;12.52;;
12072;SDS011;6098;49.004;8.372;2023-10-19T01:12:13;20.60;;;12.63;;
12072;SDS011;6098;49.004;8.372;2023-10-19T01:27:18;19.60;;;12.77;;
12072;SDS011;6098;49.004;8.372;2023-10-19T01:42:10;20.28;;;12.77;;
12072;SDS011;6098;49.004;8.372;2023-10-19T01:57:03;17.98;;;11.46;;
12072;SDS011;6098;49.004;8.372;2023-10-19T02:11:55;19.32;;;11.83;;
12072;SDS011;6098;49.004;8.372;2023-10-19T02:26:49;17.22;;;12.00;;
12072;SDS011;6098;49.004;8.372;2023-10-19T02:41:41;20.62;;;12.53;;
12072;SDS011;6098;49.004;8.372;2023-10-19T02:56:33;17.36;;;10.88;;
12072;SDS011;6098;49.004;8.372;2023-10-19T03:11:25;18.37;;;11.72;;
12072;SDS011;6098;49.004;8.372;2023-10-19T03:26:19;17.76;;;11.59;;
12072;SDS011;6098;49.004;8.372;2023-10-19T03:41:24;17.02;;;11.30;;
12072;SDS011;6098;49.004;8.372;2023-10-19T03:56:17;19.12;;;11.46;;
12072;SDS011;6098;49.004;8.372;2023-10-19T04:11:10;18.54;;;11.34;;
12072;SDS011;6098;49.004;8.372;2023-10-19T04:26:08;16.14;;;10.51;;
12072;SDS011;6098;49.004;8.372;2023-10-19T04:41:09;16.31;;;10.71;;
12072;SDS011;6098;49.004;8.372;2023-10-19T04:56:04;17.57;;;10.88;;
12072;SDS011;6098;49.004;8.372;2023-10-19T05:10:57;17.07;;;10.93;;
12072;SDS011;6098;49.004;8.372;2023-10-19T05:25:49;14.52;;;10.36;;
12072;SDS011;6098;49.004;8.372;2023-10-19T05:40:42;18.47;;;11.24;;
12072;SDS011;6098;49.004;8.372;2023-10-19T05:55:33;16.18;;;10.73;;
12072;SDS011;6098;49.004;8.372;2023-10-19T06:10:26;17.20;;;11.37;;
12072;SDS011;6098;49.004;8.372;2023-10-19T06:25:18;18.64;;;11.37;;
12072;SDS011;6098;49.004;8.372;2023-10-19T06:40:09;18.68;;;11.80;;
12072;SDS011;6098;49.004;8.372;2023-10-19T06:55:03;19.54;;;12.02;;
12072;SDS011;6098;49.004;8.372;2023-10-19T07:10:00;21.97;;;12.01;;
12072;SDS011;6098;49.004;8.372;2023-10-19T07:24:53;18.69;;;11.33;;
12072;SDS011;6098;49.004;8.372;2023-10-19T07:39:46;19.52;;;12.58;;
12072;SDS011;6098;49.004;8.372;2023-10-19T07:54:39;19.99;;;13.29;;
12072;SDS011;6098;49.004;8.372;2023-10-19T08:09:32;17.84;;;12.97;;
12072;SDS011;6098;49.004;8.372;2023-10-19T08:24:33;18.74;;;11.66;;
12072;SDS011;6098;49.004;8.372;2023-10-19T08:39:29;15.94;;;11.40;;
12072;SDS011;6098;49.004;8.372;2023-10-19T08:54:22;15.97;;;10.72;;
12072;SDS011;6098;49.004;8.372;2023-10-19T09:09:15;14.97;;;10.06;;
12072;SDS011;6098;49.004;8.372;2023-10-19T09:24:14;14.72;;;10.57;;
12072;SDS011;6098;49.004;8.372;2023-10-19T09:39:06;9.93;;;7.67;;
12072;SDS011;6098;49.004;8.372;2023-10-19T10:08:53;8.30;;;7.07;;
12072;SDS011;6098;49.004;8.372;2023-10-19T10:23:49;9.49;;;6.77;;
12072;SDS011;6098;49.004;8.372;2023-10-19T10:38:43;12.37;;;7.97;;
12072;SDS011;6098;49.004;8.372;2023-10-19T10:53:35;11.92;;;7.74;;
12072;SDS011;6098;49.004;8.372;2023-10-19T11:08:27;13.79;;;9.07;;
12072;SDS011;6098;49.004;8.372;2023-10-19T11:23:20;15.91;;;10.44;;
12072;SDS011;6098;49.004;8.372;2023-10-19T11:38:12;13.40;;;10.52;;
12072;SDS011;6098;49.004;8.372;2023-10-19T11:53:05;18.60;;;11.43;;
12072;SDS011;6098;49.004;8.372;2023-10-19T12:07:59;17.40;;;11.41;;
12072;SDS011;6098;49.004;8.372;2023-10-19T12:22:52;13.78;;;10.07;;
12072;SDS011;6098;49.004;8.372;2023-10-19T12:37:46;15.39;;;10.29;;
12072;SDS011;6098;49.004;8.372;2023-10-19T12:52:38;16.86;;;11.41;;
12072;SDS011;6098;49.004;8.372;2023-10-19T13:07:32;15.41;;;11.18;;
12072;SDS011;6098;49.004;8.372;2023-10-19T13:22:26;16.17;;;11.49;;
12072;SDS011;6098;49.004;8.372;2023-10-19T13:37:19;16.36;;;10.82;;
12072;SDS011;6098;49.004;8.372;2023-10-19T13:52:11;20.04;;;12.51;;
12072;SDS011;6098;49.004;8.372;2023-10-19T14:07:08;21.33;;;13.97;;
12072;SDS011;6098;49.004;8.372;2023-10-19T14:22:01;20.68;;;14.47;;
12072;SDS011;6098;49.004;8.372;2023-10-19T14:36:54;18.98;;;12.51;;
12072;SDS011;6098;49.004;8.372;2023-10-19T14:51:47;15.12;;;11.86;;
12072;SDS011;6098;49.004;8.372;2023-10-19T15:06:40;16.34;;;10.46;;
12072;SDS011;6098;49.004;8.372;2023-10-19T15:21:35;13.79;;;9.61;;
12072;SDS011;6098;49.004;8.372;2023-10-19T15:36:27;13.60;;;9.64;;
12072;SDS011;6098;49.004;8.372;2023-10-19T15:51:21;16.70;;;11.23;;
12072;SDS011;6098;49.004;8.372;2023-10-19T16:06:15;11.14;;;8.14;;
12072;SDS011;6098;49.004;8.372;2023-10-19T16:21:09;15.30;;;11.59;;
12072;SDS011;6098;49.004;8.372;2023-10-19T16:36:02;12.83;;;8.68;;
12072;SDS011;6098;49.004;8.372;2023-10-19T16:51:01;10.76;;;6.88;;
12072;SDS011;6098;49.004;8.372;2023-10-19T17:06:11;9.70;;;6.49;;
12072;SDS011;6098;49.004;8.372;2023-10-19T17:21:03;10.38;;;7.68;;
12072;SDS011;6098;49.004;8.372;2023-10-19T17:35:56;10.21;;;8.23;;
12072;SDS011;6098;49.004;8.372;2023-10-19T17:50:49;14.70;;;10.42;;
12072;SDS011;6098;49.004;8.372;2023-10-19T18:05:44;14.59;;;10.67;;
12072;SDS011;6098;49.004;8.372;2023-10-19T18:20:48;16.06;;;10.57;;
12072;SDS011;6098;49.004;8.372;2023-10-19T18:35:40;20.42;;;13.99;;
12072;SDS011;6098;49.004;8.372;2023-10-19T18:50:34;16.27;;;11.08;;
12072;SDS011;6098;49.004;8.372;2023-10-19T19:05:29;15.69;;;11.50;;
12072;SDS011;6098;49.004;8.372;2023-10-19T19:20:23;13.39;;;9.88;;
12072;SDS011;6098;49.004;8.372;2023-10-19T19:35:16;13.01;;;9.34;;
12072;SDS011;6098;49.004;8.372;2023-10-19T19:50:09;9.16;;;6.69;;
12072;SDS011;6098;49.004;8.372;2023-10-19T20:05:01;10.70;;;7.47;;
12072;SDS011;6098;49.004;8.372;2023-10-19T20:19:54;8.79;;;5.61;;
12072;SDS011;6098;49.004;8.372;2023-10-19T20:34:46;7.51;;;4.92;;
12072;SDS011;6098;49.004;8.372;2023-10-19T20:49:43;6.53;;;5.31;;
12072;SDS011;6098;49.004;8.372;2023-10-19T21:04:49;9.39;;;6.36;;
12072;SDS011;6098;49.004;8.372;2023-10-19T21:19:41;7.40;;;6.23;;
12072;SDS011;6098;49.004;8.372;2023-10-19T21:34:34;8.21;;;6.47;;
12072;SDS011;6098;49.004;8.372;2023-10-19T21:49:27;7.64;;;5.72;;
12072;SDS011;6098;49.004;8.372;2023-10-19T22:04:19;7.37;;;5.27;;
12072;SDS011;6098;49.004;8.372;2023-10-19T22:19:11;4.09;;;3.58;;
12072;SDS011;6098;49.004;8.372;2023-10-19T22:34:02;7.39;;;6.02;;
12072;SDS011;6098;49.004;8.372;2023-10-19T22:48:55;7.37;;;5.18;;
12072;SDS011;6098;49.004;8.372;2023-10-19T23:03:48;5.47;;;4.36;;
12072;SDS011;6098;49.004;8.372;2023-10-19T23:18:41;4.32;;;3.40;;
12072;SDS011;6098;49.004;8.372;2023-10-19T23:33:34;4.54;;;3.53;;
12072;SDS011;6098;49.004;8.372;2023-10-19T23:48:26;2.91;;;2.62;;
